sensor_id;sensor_type;location;lat;lon;timestamp;temperature;humidity
48416;DHT22;34227;51.840;4.146;2023-06-01T00:01:44;14.60;91.50
48416;DHT22;34227;51.840;4.146;2023-06-01T00:04:10;14.60;91.60
48416;DHT22;34227;51.840;4.146;2023-06-01T00:06:35;14.60;91.60
48416;DHT22;34227;51.840;4.146;2023-06-01T00:09:01;14.50;91.70
48416;DHT22;34227;51.840;4.146;2023-06-01T00:11:27;14.50;91.70
48416;DHT22;34227;51.840;4.146;2023-06-01T00:13:53;14.50;91.70
48416;DHT22;34227;51.840;4.146;2023-06-01T00:16:19;14.40;91.90
48416;DHT22;34227;51.840;4.146;2023-06-01T00:18:45;14.40;91.90
48416;DHT22;34227;51.840;4.146;2023-06-01T00:21:10;14.30;92.20
48416;DHT22;34227;51.840;4.146;2023-06-01T00:23:36;14.30;91.90
48416;DHT22;34227;51.840;4.146;2023-06-01T00:26:05;14.30;92.30
48416;DHT22;34227;51.840;4.146;2023-06-01T00:28:33;14.30;92.20
48416;DHT22;34227;51.840;4.146;2023-06-01T00:31:04;14.30;92.30
48416;DHT22;34227;51.840;4.146;2023-06-01T00:33:36;14.20;92.60
48416;DHT22;34227;51.840;4.146;2023-06-01T00:36:11;14.20;92.30
48416;DHT22;34227;51.840;4.146;2023-06-01T00:38:36;14.20;92.20
48416;DHT22;34227;51.840;4.146;2023-06-01T00:41:08;14.20;92.30
48416;DHT22;34227;51.840;4.146;2023-06-01T00:43:33;14.10;92.30
48416;DHT22;34227;51.840;4.146;2023-06-01T00:45:59;14.10;92.30
48416;DHT22;34227;51.840;4.146;2023-06-01T00:48:25;14.00;92.30
48416;DHT22;34227;51.840;4.146;2023-06-01T00:50:50;14.00;92.60
48416;DHT22;34227;51.840;4.146;2023-06-01T00:53:17;14.00;92.40
48416;DHT22;34227;51.840;4.146;2023-06-01T00:55:43;14.00;92.40
48416;DHT22;34227;51.840;4.146;2023-06-01T00:58:10;13.90;92.40
48416;DHT22;34227;51.840;4.146;2023-06-01T01:00:36;13.90;92.40
48416;DHT22;34227;51.840;4.146;2023-06-01T01:03:03;13.90;92.30
48416;DHT22;34227;51.840;4.146;2023-06-01T01:05:35;13.90;92.40
48416;DHT22;34227;51.840;4.146;2023-06-01T01:10:31;13.80;92.60
48416;DHT22;34227;51.840;4.146;2023-06-01T01:15:26;13.80;92.30
48416;DHT22;34227;51.840;4.146;2023-06-01T01:17:59;13.70;92.30
48416;DHT22;34227;51.840;4.146;2023-06-01T01:20:28;13.70;92.50
48416;DHT22;34227;51.840;4.146;2023-06-01T01:23:10;13.70;92.80
48416;DHT22;34227;51.840;4.146;2023-06-01T01:28:19;13.60;92.80
48416;DHT22;34227;51.840;4.146;2023-06-01T01:30:45;13.60;92.90
48416;DHT22;34227;51.840;4.146;2023-06-01T01:33:11;13.60;92.90
48416;DHT22;34227;51.840;4.146;2023-06-01T01:35:38;13.60;92.70
48416;DHT22;34227;51.840;4.146;2023-06-01T01:38:04;13.60;92.80
48416;DHT22;34227;51.840;4.146;2023-06-01T01:40:29;13.50;93.00
48416;DHT22;34227;51.840;4.146;2023-06-01T01:42:55;13.50;93.20
48416;DHT22;34227;51.840;4.146;2023-06-01T01:45:22;13.50;93.00
48416;DHT22;34227;51.840;4.146;2023-06-01T01:50:33;13.50;93.40
48416;DHT22;34227;51.840;4.146;2023-06-01T01:53:01;13.40;93.40
48416;DHT22;34227;51.840;4.146;2023-06-01T01:55:30;13.50;93.30
48416;DHT22;34227;51.840;4.146;2023-06-01T01:57:56;13.50;93.20
48416;DHT22;34227;51.840;4.146;2023-06-01T02:00:22;13.50;93.20
48416;DHT22;34227;51.840;4.146;2023-06-01T02:02:48;13.50;93.20
48416;DHT22;34227;51.840;4.146;2023-06-01T02:05:13;13.40;93.30
48416;DHT22;34227;51.840;4.146;2023-06-01T02:07:39;13.40;93.40
48416;DHT22;34227;51.840;4.146;2023-06-01T02:10:04;13.40;93.20
48416;DHT22;34227;51.840;4.146;2023-06-01T02:12:30;13.40;93.20
48416;DHT22;34227;51.840;4.146;2023-06-01T02:14:56;13.40;93.20
48416;DHT22;34227;51.840;4.146;2023-06-01T02:17:21;13.40;93.70
48416;DHT22;34227;51.840;4.146;2023-06-01T02:19:47;13.30;93.40
48416;DHT22;34227;51.840;4.146;2023-06-01T02:22:12;13.30;93.30
48416;DHT22;34227;51.840;4.146;2023-06-01T02:24:38;13.30;93.60
48416;DHT22;34227;51.840;4.146;2023-06-01T02:27:04;13.30;93.50
48416;DHT22;34227;51.840;4.146;2023-06-01T02:29:30;13.30;93.40
48416;DHT22;34227;51.840;4.146;2023-06-01T02:31:56;13.30;93.40
48416;DHT22;34227;51.840;4.146;2023-06-01T02:34:21;13.20;93.60
48416;DHT22;34227;51.840;4.146;2023-06-01T02:36:47;13.20;94.00
48416;DHT22;34227;51.840;4.146;2023-06-01T02:39:13;13.20;93.60
48416;DHT22;34227;51.840;4.146;2023-06-01T02:41:39;13.20;93.40
48416;DHT22;34227;51.840;4.146;2023-06-01T02:44:04;13.20;93.40
48416;DHT22;34227;51.840;4.146;2023-06-01T02:46:30;13.20;93.40
48416;DHT22;34227;51.840;4.146;2023-06-01T02:48:56;13.20;93.20
48416;DHT22;34227;51.840;4.146;2023-06-01T02:51:21;13.20;93.60
48416;DHT22;34227;51.840;4.146;2023-06-01T02:53:47;13.20;93.40
48416;DHT22;34227;51.840;4.146;2023-06-01T02:56:12;13.10;93.60
48416;DHT22;34227;51.840;4.146;2023-06-01T02:58:38;13.10;93.80
48416;DHT22;34227;51.840;4.146;2023-06-01T03:01:04;13.20;93.40
48416;DHT22;34227;51.840;4.146;2023-06-01T03:03:35;13.10;93.40
48416;DHT22;34227;51.840;4.146;2023-06-01T03:06:02;13.10;93.80
48416;DHT22;34227;51.840;4.146;2023-06-01T03:08:28;13.10;93.90
48416;DHT22;34227;51.840;4.146;2023-06-01T03:10:54;13.10;93.70
48416;DHT22;34227;51.840;4.146;2023-06-01T03:13:19;13.10;93.60
48416;DHT22;34227;51.840;4.146;2023-06-01T03:15:45;13.10;93.50
48416;DHT22;34227;51.840;4.146;2023-06-01T03:18:11;13.10;93.60
48416;DHT22;34227;51.840;4.146;2023-06-01T03:20:36;13.10;94.10
48416;DHT22;34227;51.840;4.146;2023-06-01T03:23:02;13.10;93.70
48416;DHT22;34227;51.840;4.146;2023-06-01T03:25:28;13.10;93.70
48416;DHT22;34227;51.840;4.146;2023-06-01T03:27:53;13.10;93.60
48416;DHT22;34227;51.840;4.146;2023-06-01T03:30:19;13.10;93.50
48416;DHT22;34227;51.840;4.146;2023-06-01T03:32:45;13.10;93.80
48416;DHT22;34227;51.840;4.146;2023-06-01T03:35:11;13.10;93.40
48416;DHT22;34227;51.840;4.146;2023-06-01T03:37:37;13.10;93.70
48416;DHT22;34227;51.840;4.146;2023-06-01T03:40:04;13.10;93.80
48416;DHT22;34227;51.840;4.146;2023-06-01T03:42:45;13.00;93.80
48416;DHT22;34227;51.840;4.146;2023-06-01T03:45:11;13.00;93.90
48416;DHT22;34227;51.840;4.146;2023-06-01T03:47:37;13.00;93.70
48416;DHT22;34227;51.840;4.146;2023-06-01T03:50:04;13.00;93.70
48416;DHT22;34227;51.840;4.146;2023-06-01T03:52:31;13.00;94.00
48416;DHT22;34227;51.840;4.146;2023-06-01T03:54:57;12.90;94.00
48416;DHT22;34227;51.840;4.146;2023-06-01T03:57:23;13.00;93.80
48416;DHT22;34227;51.840;4.146;2023-06-01T03:59:50;13.00;94.00
48416;DHT22;34227;51.840;4.146;2023-06-01T04:02:16;12.90;94.00
48416;DHT22;34227;51.840;4.146;2023-06-01T04:04:43;12.90;94.00
48416;DHT22;34227;51.840;4.146;2023-06-01T04:07:12;12.90;94.10
48416;DHT22;34227;51.840;4.146;2023-06-01T04:09:40;12.90;94.20
48416;DHT22;34227;51.840;4.146;2023-06-01T04:12:06;12.80;94.30
48416;DHT22;34227;51.840;4.146;2023-06-01T04:14:32;12.80;94.30
48416;DHT22;34227;51.840;4.146;2023-06-01T04:16:57;12.80;94.30
48416;DHT22;34227;51.840;4.146;2023-06-01T04:19:23;12.80;94.20
48416;DHT22;34227;51.840;4.146;2023-06-01T04:21:48;12.70;94.90
48416;DHT22;34227;51.840;4.146;2023-06-01T04:24:15;12.80;94.70
48416;DHT22;34227;51.840;4.146;2023-06-01T04:26:41;12.80;94.30
48416;DHT22;34227;51.840;4.146;2023-06-01T04:29:07;12.80;94.10
48416;DHT22;34227;51.840;4.146;2023-06-01T04:31:34;12.80;94.20
48416;DHT22;34227;51.840;4.146;2023-06-01T04:34:00;12.80;94.20
48416;DHT22;34227;51.840;4.146;2023-06-01T04:36:27;12.80;94.60
48416;DHT22;34227;51.840;4.146;2023-06-01T04:38:54;12.80;94.80
48416;DHT22;34227;51.840;4.146;2023-06-01T04:41:21;12.80;94.70
48416;DHT22;34227;51.840;4.146;2023-06-01T04:43:56;12.80;94.40
48416;DHT22;34227;51.840;4.146;2023-06-01T04:46:24;12.80;94.20
48416;DHT22;34227;51.840;4.146;2023-06-01T04:48:54;12.80;94.80
48416;DHT22;34227;51.840;4.146;2023-06-01T04:51:23;12.80;94.80
48416;DHT22;34227;51.840;4.146;2023-06-01T04:53:50;12.80;94.90
48416;DHT22;34227;51.840;4.146;2023-06-01T04:56:20;12.80;94.90
48416;DHT22;34227;51.840;4.146;2023-06-01T04:58:50;12.80;94.80
48416;DHT22;34227;51.840;4.146;2023-06-01T05:01:15;12.80;94.30
48416;DHT22;34227;51.840;4.146;2023-06-01T05:03:42;12.80;94.80
48416;DHT22;34227;51.840;4.146;2023-06-01T05:06:08;12.90;94.80
48416;DHT22;34227;51.840;4.146;2023-06-01T05:08:34;12.90;95.20
48416;DHT22;34227;51.840;4.146;2023-06-01T05:11:01;12.90;95.20
48416;DHT22;34227;51.840;4.146;2023-06-01T05:13:26;12.90;95.50
48416;DHT22;34227;51.840;4.146;2023-06-01T05:15:52;12.90;95.30
48416;DHT22;34227;51.840;4.146;2023-06-01T05:18:17;12.90;95.20
48416;DHT22;34227;51.840;4.146;2023-06-01T05:20:43;12.90;95.60
48416;DHT22;34227;51.840;4.146;2023-06-01T05:23:08;13.00;95.70
48416;DHT22;34227;51.840;4.146;2023-06-01T05:25:34;13.00;95.60
48416;DHT22;34227;51.840;4.146;2023-06-01T05:27:59;13.00;95.40
48416;DHT22;34227;51.840;4.146;2023-06-01T05:30:25;13.10;95.60
48416;DHT22;34227;51.840;4.146;2023-06-01T05:32:51;13.10;95.50
48416;DHT22;34227;51.840;4.146;2023-06-01T05:35:16;13.10;95.70
48416;DHT22;34227;51.840;4.146;2023-06-01T05:37:42;13.20;95.40
48416;DHT22;34227;51.840;4.146;2023-06-01T05:40:08;13.20;95.30
48416;DHT22;34227;51.840;4.146;2023-06-01T05:42:34;13.30;95.30
48416;DHT22;34227;51.840;4.146;2023-06-01T05:44:59;13.30;95.30
48416;DHT22;34227;51.840;4.146;2023-06-01T05:47:25;13.30;95.20
48416;DHT22;34227;51.840;4.146;2023-06-01T05:49:50;13.40;95.20
48416;DHT22;34227;51.840;4.146;2023-06-01T05:52:16;13.40;94.90
48416;DHT22;34227;51.840;4.146;2023-06-01T05:54:41;13.50;94.80
48416;DHT22;34227;51.840;4.146;2023-06-01T05:57:07;13.50;95.00
48416;DHT22;34227;51.840;4.146;2023-06-01T05:59:33;13.50;94.90
48416;DHT22;34227;51.840;4.146;2023-06-01T06:01:59;13.50;94.90
48416;DHT22;34227;51.840;4.146;2023-06-01T06:04:24;13.60;94.90
48416;DHT22;34227;51.840;4.146;2023-06-01T06:06:50;13.70;94.80
48416;DHT22;34227;51.840;4.146;2023-06-01T06:09:16;13.80;94.70
48416;DHT22;34227;51.840;4.146;2023-06-01T06:11:41;13.90;94.40
48416;DHT22;34227;51.840;4.146;2023-06-01T06:14:07;14.00;94.40
48416;DHT22;34227;51.840;4.146;2023-06-01T06:16:34;14.00;94.20
48416;DHT22;34227;51.840;4.146;2023-06-01T06:18:59;14.20;94.10
48416;DHT22;34227;51.840;4.146;2023-06-01T06:21:25;14.20;94.10
48416;DHT22;34227;51.840;4.146;2023-06-01T06:23:50;14.30;94.10
48416;DHT22;34227;51.840;4.146;2023-06-01T06:26:16;14.50;93.70
48416;DHT22;34227;51.840;4.146;2023-06-01T06:28:42;14.60;94.10
48416;DHT22;34227;51.840;4.146;2023-06-01T06:31:07;14.70;93.70
48416;DHT22;34227;51.840;4.146;2023-06-01T06:33:33;14.80;93.60
48416;DHT22;34227;51.840;4.146;2023-06-01T06:35:58;15.00;93.60
48416;DHT22;34227;51.840;4.146;2023-06-01T06:38:24;15.00;93.40
48416;DHT22;34227;51.840;4.146;2023-06-01T06:40:49;15.20;93.30
48416;DHT22;34227;51.840;4.146;2023-06-01T06:43:16;15.30;93.00
48416;DHT22;34227;51.840;4.146;2023-06-01T06:45:42;15.40;92.90
48416;DHT22;34227;51.840;4.146;2023-06-01T06:48:07;15.50;93.10
48416;DHT22;34227;51.840;4.146;2023-06-01T06:50:33;15.80;93.00
48416;DHT22;34227;51.840;4.146;2023-06-01T06:52:59;16.10;93.00
48416;DHT22;34227;51.840;4.146;2023-06-01T06:55:25;16.30;92.70
48416;DHT22;34227;51.840;4.146;2023-06-01T06:57:52;16.70;92.70
48416;DHT22;34227;51.840;4.146;2023-06-01T07:00:19;17.10;92.50
48416;DHT22;34227;51.840;4.146;2023-06-01T07:02:45;17.40;91.90
48416;DHT22;34227;51.840;4.146;2023-06-01T07:05:11;17.70;91.00
48416;DHT22;34227;51.840;4.146;2023-06-01T07:07:38;18.00;90.70
48416;DHT22;34227;51.840;4.146;2023-06-01T07:10:04;18.20;90.60
48416;DHT22;34227;51.840;4.146;2023-06-01T07:12:32;18.50;90.90
48416;DHT22;34227;51.840;4.146;2023-06-01T07:14:59;18.80;90.20
48416;DHT22;34227;51.840;4.146;2023-06-01T07:17:24;19.20;89.80
48416;DHT22;34227;51.840;4.146;2023-06-01T07:19:50;19.40;88.00
48416;DHT22;34227;51.840;4.146;2023-06-01T07:22:15;19.60;87.30
48416;DHT22;34227;51.840;4.146;2023-06-01T07:24:42;19.70;86.30
48416;DHT22;34227;51.840;4.146;2023-06-01T07:27:08;19.80;84.90
48416;DHT22;34227;51.840;4.146;2023-06-01T07:29:34;19.90;84.50
48416;DHT22;34227;51.840;4.146;2023-06-01T07:32:00;19.90;84.30
48416;DHT22;34227;51.840;4.146;2023-06-01T07:34:25;20.00;84.80
48416;DHT22;34227;51.840;4.146;2023-06-01T07:36:52;20.20;83.90
48416;DHT22;34227;51.840;4.146;2023-06-01T07:39:18;20.30;84.00
48416;DHT22;34227;51.840;4.146;2023-06-01T07:41:45;20.50;84.60
48416;DHT22;34227;51.840;4.146;2023-06-01T07:44:13;20.70;83.50
48416;DHT22;34227;51.840;4.146;2023-06-01T07:46:44;21.00;83.00
48416;DHT22;34227;51.840;4.146;2023-06-01T07:49:21;21.30;82.50
48416;DHT22;34227;51.840;4.146;2023-06-01T07:51:47;21.50;80.60
48416;DHT22;34227;51.840;4.146;2023-06-01T07:54:13;21.70;80.60
48416;DHT22;34227;51.840;4.146;2023-06-01T07:56:39;21.90;81.10
48416;DHT22;34227;51.840;4.146;2023-06-01T07:59:05;22.00;78.40
48416;DHT22;34227;51.840;4.146;2023-06-01T08:01:31;22.10;76.20
48416;DHT22;34227;51.840;4.146;2023-06-01T08:03:56;22.20;76.80
48416;DHT22;34227;51.840;4.146;2023-06-01T08:06:25;22.30;76.60
48416;DHT22;34227;51.840;4.146;2023-06-01T08:08:53;22.40;75.90
48416;DHT22;34227;51.840;4.146;2023-06-01T08:11:21;22.50;75.50
48416;DHT22;34227;51.840;4.146;2023-06-01T08:13:48;22.60;75.30
48416;DHT22;34227;51.840;4.146;2023-06-01T08:16:14;22.80;75.80
48416;DHT22;34227;51.840;4.146;2023-06-01T08:18:40;22.90;73.40
48416;DHT22;34227;51.840;4.146;2023-06-01T08:21:05;23.10;74.10
48416;DHT22;34227;51.840;4.146;2023-06-01T08:23:43;23.20;73.20
48416;DHT22;34227;51.840;4.146;2023-06-01T08:26:12;23.50;73.60
48416;DHT22;34227;51.840;4.146;2023-06-01T08:28:38;23.70;72.80
48416;DHT22;34227;51.840;4.146;2023-06-01T08:31:03;23.90;72.40
48416;DHT22;34227;51.840;4.146;2023-06-01T08:33:29;24.00;70.20
48416;DHT22;34227;51.840;4.146;2023-06-01T08:35:55;24.20;69.70
48416;DHT22;34227;51.840;4.146;2023-06-01T08:38:21;24.30;69.50
48416;DHT22;34227;51.840;4.146;2023-06-01T08:40:47;24.50;69.90
48416;DHT22;34227;51.840;4.146;2023-06-01T08:43:19;24.60;68.20
48416;DHT22;34227;51.840;4.146;2023-06-01T08:45:51;24.80;66.60
48416;DHT22;34227;51.840;4.146;2023-06-01T08:48:17;25.00;67.70
48416;DHT22;34227;51.840;4.146;2023-06-01T08:50:49;25.30;66.70
48416;DHT22;34227;51.840;4.146;2023-06-01T08:53:17;25.40;66.10
48416;DHT22;34227;51.840;4.146;2023-06-01T08:55:44;25.70;66.20
48416;DHT22;34227;51.840;4.146;2023-06-01T08:58:10;25.90;64.80
48416;DHT22;34227;51.840;4.146;2023-06-01T09:00:37;26.10;64.10
48416;DHT22;34227;51.840;4.146;2023-06-01T09:03:03;26.30;63.70
48416;DHT22;34227;51.840;4.146;2023-06-01T09:05:28;26.50;63.70
48416;DHT22;34227;51.840;4.146;2023-06-01T09:07:54;26.60;61.70
48416;DHT22;34227;51.840;4.146;2023-06-01T09:10:26;26.80;62.80
48416;DHT22;34227;51.840;4.146;2023-06-01T09:12:55;27.00;63.30
48416;DHT22;34227;51.840;4.146;2023-06-01T09:15:20;27.10;61.90
48416;DHT22;34227;51.840;4.146;2023-06-01T09:17:47;27.30;60.40
48416;DHT22;34227;51.840;4.146;2023-06-01T09:20:14;27.50;60.80
48416;DHT22;34227;51.840;4.146;2023-06-01T09:22:41;27.60;59.30
48416;DHT22;34227;51.840;4.146;2023-06-01T09:25:07;27.70;59.10
48416;DHT22;34227;51.840;4.146;2023-06-01T09:27:46;27.80;58.40
48416;DHT22;34227;51.840;4.146;2023-06-01T09:30:12;28.00;58.50
48416;DHT22;34227;51.840;4.146;2023-06-01T09:32:38;28.10;57.10
48416;DHT22;34227;51.840;4.146;2023-06-01T09:35:04;28.20;58.00
48416;DHT22;34227;51.840;4.146;2023-06-01T09:37:32;28.40;57.10
48416;DHT22;34227;51.840;4.146;2023-06-01T09:39:58;28.50;56.50
48416;DHT22;34227;51.840;4.146;2023-06-01T09:42:31;28.50;55.40
48416;DHT22;34227;51.840;4.146;2023-06-01T09:44:56;28.60;55.80
48416;DHT22;34227;51.840;4.146;2023-06-01T09:47:38;28.70;55.20
48416;DHT22;34227;51.840;4.146;2023-06-01T09:50:04;28.80;54.90
48416;DHT22;34227;51.840;4.146;2023-06-01T09:52:29;28.90;54.70
48416;DHT22;34227;51.840;4.146;2023-06-01T09:54:55;29.00;54.40
48416;DHT22;34227;51.840;4.146;2023-06-01T09:57:29;29.00;54.00
48416;DHT22;34227;51.840;4.146;2023-06-01T10:00:17;29.20;54.10
48416;DHT22;34227;51.840;4.146;2023-06-01T10:02:43;29.30;54.10
48416;DHT22;34227;51.840;4.146;2023-06-01T10:05:09;29.50;53.50
48416;DHT22;34227;51.840;4.146;2023-06-01T10:07:34;29.50;54.00
48416;DHT22;34227;51.840;4.146;2023-06-01T10:10:02;29.60;52.50
48416;DHT22;34227;51.840;4.146;2023-06-01T10:12:29;29.60;52.90
48416;DHT22;34227;51.840;4.146;2023-06-01T10:14:55;29.70;53.30
48416;DHT22;34227;51.840;4.146;2023-06-01T10:17:21;29.70;51.90
48416;DHT22;34227;51.840;4.146;2023-06-01T10:19:47;29.70;52.30
48416;DHT22;34227;51.840;4.146;2023-06-01T10:22:13;29.70;52.00
48416;DHT22;34227;51.840;4.146;2023-06-01T10:24:39;29.80;51.30
48416;DHT22;34227;51.840;4.146;2023-06-01T10:29:42;29.70;52.60
48416;DHT22;34227;51.840;4.146;2023-06-01T10:34:53;29.50;51.50
48416;DHT22;34227;51.840;4.146;2023-06-01T10:37:18;29.50;49.30
48416;DHT22;34227;51.840;4.146;2023-06-01T10:39:49;29.40;49.60
48416;DHT22;34227;51.840;4.146;2023-06-01T10:50:19;29.00;48.60
48416;DHT22;34227;51.840;4.146;2023-06-01T10:54:52;28.80;49.00
48416;DHT22;34227;51.840;4.146;2023-06-01T10:57:18;28.70;49.10
48416;DHT22;34227;51.840;4.146;2023-06-01T10:59:48;28.60;48.90
48416;DHT22;34227;51.840;4.146;2023-06-01T11:02:30;28.30;49.30
48416;DHT22;34227;51.840;4.146;2023-06-01T11:07:49;28.00;49.60
48416;DHT22;34227;51.840;4.146;2023-06-01T11:10:45;27.90;49.60
48416;DHT22;34227;51.840;4.146;2023-06-01T11:13:10;27.70;49.90
48416;DHT22;34227;51.840;4.146;2023-06-01T11:15:36;27.50;49.80
48416;DHT22;34227;51.840;4.146;2023-06-01T11:20:52;27.20;50.10
48416;DHT22;34227;51.840;4.146;2023-06-01T11:23:19;27.10;50.60
48416;DHT22;34227;51.840;4.146;2023-06-01T11:25:45;26.90;50.70
48416;DHT22;34227;51.840;4.146;2023-06-01T11:28:12;26.70;50.50
48416;DHT22;34227;51.840;4.146;2023-06-01T11:30:38;26.50;50.80
48416;DHT22;34227;51.840;4.146;2023-06-01T11:33:03;26.20;50.80
48416;DHT22;34227;51.840;4.146;2023-06-01T11:35:38;26.10;51.40
48416;DHT22;34227;51.840;4.146;2023-06-01T11:38:04;26.00;51.80
48416;DHT22;34227;51.840;4.146;2023-06-01T11:40:29;25.70;51.80
48416;DHT22;34227;51.840;4.146;2023-06-01T11:42:55;25.60;52.30
48416;DHT22;34227;51.840;4.146;2023-06-01T11:45:20;25.40;52.70
48416;DHT22;34227;51.840;4.146;2023-06-01T11:47:46;25.30;53.00
48416;DHT22;34227;51.840;4.146;2023-06-01T11:50:22;25.00;53.00
48416;DHT22;34227;51.840;4.146;2023-06-01T11:52:48;25.00;53.40
48416;DHT22;34227;51.840;4.146;2023-06-01T11:55:14;24.70;53.70
48416;DHT22;34227;51.840;4.146;2023-06-01T11:57:40;24.60;54.00
48416;DHT22;34227;51.840;4.146;2023-06-01T12:00:10;24.40;54.30
48416;DHT22;34227;51.840;4.146;2023-06-01T12:02:38;24.20;54.60
48416;DHT22;34227;51.840;4.146;2023-06-01T12:05:04;24.10;55.00
48416;DHT22;34227;51.840;4.146;2023-06-01T12:07:43;24.00;55.40
48416;DHT22;34227;51.840;4.146;2023-06-01T12:10:13;23.80;55.60
48416;DHT22;34227;51.840;4.146;2023-06-01T12:12:42;23.60;56.00
48416;DHT22;34227;51.840;4.146;2023-06-01T12:15:09;23.50;56.30
48416;DHT22;34227;51.840;4.146;2023-06-01T12:17:56;23.30;56.90
48416;DHT22;34227;51.840;4.146;2023-06-01T12:22:57;23.00;57.50
48416;DHT22;34227;51.840;4.146;2023-06-01T12:25:29;22.90;57.80
48416;DHT22;34227;51.840;4.146;2023-06-01T12:28:06;22.70;58.00
48416;DHT22;34227;51.840;4.146;2023-06-01T12:30:35;22.50;58.50
48416;DHT22;34227;51.840;4.146;2023-06-01T12:33:02;22.50;58.80
48416;DHT22;34227;51.840;4.146;2023-06-01T12:35:30;22.40;58.80
48416;DHT22;34227;51.840;4.146;2023-06-01T12:38:05;22.30;59.00
48416;DHT22;34227;51.840;4.146;2023-06-01T12:40:35;22.20;59.30
48416;DHT22;34227;51.840;4.146;2023-06-01T12:43:06;22.10;59.50
48416;DHT22;34227;51.840;4.146;2023-06-01T12:45:42;22.00;59.80
48416;DHT22;34227;51.840;4.146;2023-06-01T12:48:07;21.90;60.00
48416;DHT22;34227;51.840;4.146;2023-06-01T12:50:33;21.80;60.40
48416;DHT22;34227;51.840;4.146;2023-06-01T12:52:59;21.60;60.70
48416;DHT22;34227;51.840;4.146;2023-06-01T12:55:24;21.50;60.90
48416;DHT22;34227;51.840;4.146;2023-06-01T12:57:53;21.40;61.10
48416;DHT22;34227;51.840;4.146;2023-06-01T13:00:19;21.40;61.70
48416;DHT22;34227;51.840;4.146;2023-06-01T13:02:45;21.30;62.00
48416;DHT22;34227;51.840;4.146;2023-06-01T13:05:15;21.30;62.20
48416;DHT22;34227;51.840;4.146;2023-06-01T13:07:42;21.20;62.90
48416;DHT22;34227;51.840;4.146;2023-06-01T13:10:08;21.10;63.30
48416;DHT22;34227;51.840;4.146;2023-06-01T13:12:35;21.10;63.30
48416;DHT22;34227;51.840;4.146;2023-06-01T13:15:01;21.00;63.50
48416;DHT22;34227;51.840;4.146;2023-06-01T13:17:28;21.10;63.40
48416;DHT22;34227;51.840;4.146;2023-06-01T13:19:54;21.10;63.50
48416;DHT22;34227;51.840;4.146;2023-06-01T13:22:20;21.00;64.20
48416;DHT22;34227;51.840;4.146;2023-06-01T13:24:50;21.10;64.00
48416;DHT22;34227;51.840;4.146;2023-06-01T13:27:16;21.10;63.90
48416;DHT22;34227;51.840;4.146;2023-06-01T13:29:41;21.10;64.20
48416;DHT22;34227;51.840;4.146;2023-06-01T13:32:07;21.10;64.10
48416;DHT22;34227;51.840;4.146;2023-06-01T13:34:33;21.20;64.30
48416;DHT22;34227;51.840;4.146;2023-06-01T13:36:59;21.20;64.10
48416;DHT22;34227;51.840;4.146;2023-06-01T13:39:25;21.20;63.60
48416;DHT22;34227;51.840;4.146;2023-06-01T13:41:50;21.20;64.00
48416;DHT22;34227;51.840;4.146;2023-06-01T13:44:16;21.20;64.40
48416;DHT22;34227;51.840;4.146;2023-06-01T13:46:43;21.20;64.10
48416;DHT22;34227;51.840;4.146;2023-06-01T13:49:09;21.20;64.00
48416;DHT22;34227;51.840;4.146;2023-06-01T13:51:35;21.20;63.90
48416;DHT22;34227;51.840;4.146;2023-06-01T13:54:03;21.20;64.20
48416;DHT22;34227;51.840;4.146;2023-06-01T13:56:29;21.20;64.40
48416;DHT22;34227;51.840;4.146;2023-06-01T13:58:54;21.20;64.60
48416;DHT22;34227;51.840;4.146;2023-06-01T14:01:20;21.30;64.50
48416;DHT22;34227;51.840;4.146;2023-06-01T14:03:46;21.20;65.00
48416;DHT22;34227;51.840;4.146;2023-06-01T14:06:12;21.30;64.60
48416;DHT22;34227;51.840;4.146;2023-06-01T14:08:38;21.30;65.10
48416;DHT22;34227;51.840;4.146;2023-06-01T14:11:03;21.20;65.60
48416;DHT22;34227;51.840;4.146;2023-06-01T14:13:29;21.20;65.30
48416;DHT22;34227;51.840;4.146;2023-06-01T14:15:54;21.30;65.50
48416;DHT22;34227;51.840;4.146;2023-06-01T14:18:20;21.20;65.20
48416;DHT22;34227;51.840;4.146;2023-06-01T14:20:45;21.20;65.00
48416;DHT22;34227;51.840;4.146;2023-06-01T14:23:11;21.20;64.80
48416;DHT22;34227;51.840;4.146;2023-06-01T14:25:47;21.10;65.00
48416;DHT22;34227;51.840;4.146;2023-06-01T14:28:13;21.10;64.70
48416;DHT22;34227;51.840;4.146;2023-06-01T14:30:40;21.10;64.90
48416;DHT22;34227;51.840;4.146;2023-06-01T14:33:06;21.10;64.90
48416;DHT22;34227;51.840;4.146;2023-06-01T14:35:32;21.00;65.80
48416;DHT22;34227;51.840;4.146;2023-06-01T14:37:58;21.00;66.10
48416;DHT22;34227;51.840;4.146;2023-06-01T14:40:24;21.00;66.40
48416;DHT22;34227;51.840;4.146;2023-06-01T14:42:50;20.90;66.80
48416;DHT22;34227;51.840;4.146;2023-06-01T14:45:15;20.90;66.70
48416;DHT22;34227;51.840;4.146;2023-06-01T14:47:41;20.80;67.00
48416;DHT22;34227;51.840;4.146;2023-06-01T14:50:07;20.80;66.90
48416;DHT22;34227;51.840;4.146;2023-06-01T14:52:33;20.80;66.60
48416;DHT22;34227;51.840;4.146;2023-06-01T14:54:58;20.80;67.20
48416;DHT22;34227;51.840;4.146;2023-06-01T14:57:24;20.80;66.80
48416;DHT22;34227;51.840;4.146;2023-06-01T14:59:49;20.70;67.20
48416;DHT22;34227;51.840;4.146;2023-06-01T15:02:15;20.70;67.20
48416;DHT22;34227;51.840;4.146;2023-06-01T15:04:41;20.70;67.20
48416;DHT22;34227;51.840;4.146;2023-06-01T15:07:06;20.60;67.10
48416;DHT22;34227;51.840;4.146;2023-06-01T15:09:35;20.50;67.40
48416;DHT22;34227;51.840;4.146;2023-06-01T15:12:01;20.40;67.10
48416;DHT22;34227;51.840;4.146;2023-06-01T15:14:27;20.40;67.20
48416;DHT22;34227;51.840;4.146;2023-06-01T15:16:52;20.30;67.40
48416;DHT22;34227;51.840;4.146;2023-06-01T15:19:18;20.20;67.30
48416;DHT22;34227;51.840;4.146;2023-06-01T15:21:46;20.30;67.60
48416;DHT22;34227;51.840;4.146;2023-06-01T15:24:19;20.20;67.40
48416;DHT22;34227;51.840;4.146;2023-06-01T15:26:45;20.20;67.30
48416;DHT22;34227;51.840;4.146;2023-06-01T15:29:13;20.10;67.40
48416;DHT22;34227;51.840;4.146;2023-06-01T15:31:42;20.10;67.60
48416;DHT22;34227;51.840;4.146;2023-06-01T15:34:07;19.90;67.60
48416;DHT22;34227;51.840;4.146;2023-06-01T15:36:35;19.90;68.00
48416;DHT22;34227;51.840;4.146;2023-06-01T15:39:01;19.80;68.30
48416;DHT22;34227;51.840;4.146;2023-06-01T15:41:27;19.70;68.40
48416;DHT22;34227;51.840;4.146;2023-06-01T15:43:53;19.80;68.20
48416;DHT22;34227;51.840;4.146;2023-06-01T15:46:19;19.60;68.70
48416;DHT22;34227;51.840;4.146;2023-06-01T15:48:44;19.60;68.70
48416;DHT22;34227;51.840;4.146;2023-06-01T15:51:10;19.50;68.40
48416;DHT22;34227;51.840;4.146;2023-06-01T15:53:35;19.60;68.70
48416;DHT22;34227;51.840;4.146;2023-06-01T15:56:01;19.50;68.90
48416;DHT22;34227;51.840;4.146;2023-06-01T15:58:30;19.40;69.30
